Time;durP1;ratioP1;P1;durP2;ratioP2;P2;SDS_P1;SDS_P2;PMS_P1;PMS_P2;Temp;Humidity;BMP_temperature;BMP_pressure;BME280_temperature;BME280_humidity;BME280_pressure;Samples;Min_cycle;Max_cycle;Signal;HPM_P1;HPM_P2
2021/06/29 00:01:58;;;;;;;;;3.00;0.75;;;;;19.92;55.51;100888.81;5072779;28;45541;-80
2021/06/29 00:04:23;;;;;;;;;2.00;1.00;;;;;19.86;55.75;100886.75;5070191;28;45492;-81
2021/06/29 00:06:49;;;;;;;;;1.25;1.25;;;;;19.87;55.36;100883.91;5079837;28;45560;-81
2021/06/29 00:09:15;;;;;;;;;2.50;2.50;;;;;19.83;55.34;100881.72;5076978;28;46834;-81
2021/06/29 00:11:41;;;;;;;;;0.75;0.75;;;;;19.83;55.40;100884.41;5069997;28;45300;-81
2021/06/29 00:14:06;;;;;;;;;1.25;1.25;;;;;19.85;56.32;100877.06;5074334;28;45435;-81
2021/06/29 00:16:32;;;;;;;;;3.50;1.75;;;;;19.83;56.36;100879.88;5074419;28;45238;-81
2021/06/29 00:18:57;;;;;;;;;2.25;0.75;;;;;19.82;57.31;100885.41;5066420;28;46609;-79
2021/06/29 00:21:23;;;;;;;;;0.75;0.75;;;;;19.78;57.04;100880.34;5062998;28;45443;-81
2021/06/29 00:23:48;;;;;;;;;0.75;0.75;;;;;19.76;56.10;100879.66;5063502;28;45349;-81
2021/06/29 00:26:14;;;;;;;;;1.75;1.75;;;;;19.79;57.15;100883.88;5075823;28;45571;-82
2021/06/29 00:28:39;;;;;;;;;1.25;1.25;;;;;19.77;56.17;100885.88;5062149;28;45485;-81
2021/06/29 00:31:05;;;;;;;;;1.75;1.75;;;;;19.76;56.97;100878.81;5065338;28;45355;-81
2021/06/29 00:33:31;;;;;;;;;1.75;1.75;;;;;19.77;56.69;100872.47;5064077;28;45315;-82
2021/06/29 00:35:57;;;;;;;;;1.00;1.00;;;;;19.80;56.68;100869.47;5072388;28;45389;-81
2021/06/29 00:38:22;;;;;;;;;1.00;1.00;;;;;19.80;56.63;100867.63;5081311;28;46966;-82
2021/06/29 00:40:47;;;;;;;;;1.75;0.75;;;;;19.82;56.80;100867.47;5081533;28;45427;-82
2021/06/29 00:43:13;;;;;;;;;2.00;2.00;;;;;19.81;56.56;100865.81;5081289;28;45445;-81
2021/06/29 00:45:39;;;;;;;;;1.50;1.50;;;;;19.79;57.35;100871.31;5081638;28;45485;-81
2021/06/29 00:48:04;;;;;;;;;2.75;1.75;;;;;19.77;56.45;100862.59;5081334;28;47432;-82
2021/06/29 00:50:30;;;;;;;;;2.00;0.75;;;;;19.78;57.07;100868.78;5083075;28;45996;-82
2021/06/29 00:52:56;;;;;;;;;1.75;1.75;;;;;19.78;56.26;100861.59;5083879;28;45559;-81
2021/06/29 00:55:21;;;;;;;;;3.25;2.25;;;;;19.79;56.62;100859.75;5081494;28;46071;-82
2021/06/29 00:57:51;;;;;;;;;2.00;2.00;;;;;19.82;56.38;100851.41;5065259;28;46574;-82
2021/06/29 01:00:17;;;;;;;;;1.75;1.75;;;;;19.86;56.07;100854.59;5061052;28;45677;-81
2021/06/29 01:02:43;;;;;;;;;2.00;1.25;;;;;19.85;56.44;100859.09;5062371;28;45329;-81
2021/06/29 01:05:09;;;;;;;;;2.00;2.00;;;;;19.85;55.99;100855.63;5062261;28;45253;-81
2021/06/29 01:07:35;;;;;;;;;2.75;1.75;;;;;19.85;56.95;100853.75;5070050;28;46190;-81
2021/06/29 01:10:04;;;;;;;;;1.50;1.25;;;;;19.85;56.52;100848.38;5063695;28;45274;-81
2021/06/29 01:12:29;;;;;;;;;3.50;1.75;;;;;19.86;56.09;100846.53;5077275;28;45386;-81
2021/06/29 01:14:55;;;;;;;;;1.75;1.75;;;;;19.86;55.85;100833.16;5085318;28;45310;-82
2021/06/29 01:17:22;;;;;;;;;2.00;1.75;;;;;19.88;56.40;100836.50;5077117;28;45451;-82
2021/06/29 01:19:50;;;;;;;;;2.50;2.00;;;;;19.87;56.77;100837.50;5062074;28;45244;-81
2021/06/29 01:22:16;;;;;;;;;1.75;1.75;;;;;19.88;56.21;100839.19;5062073;28;45274;-81
2021/06/29 01:24:44;;;;;;;;;1.75;1.75;;;;;19.87;56.56;100835.66;5061994;28;45248;-81
2021/06/29 01:27:25;;;;;;;;;2.00;1.00;;;;;19.85;55.87;100831.50;5060679;28;48085;-81
2021/06/29 01:32:18;;;;;;;;;1.75;1.75;;;;;19.82;56.04;100832.66;5063325;28;45543;-82
2021/06/29 01:34:44;;;;;;;;;2.75;2.75;;;;;19.78;56.17;100831.28;5065058;28;45513;-81
2021/06/29 01:37:11;;;;;;;;;1.75;1.50;;;;;19.76;56.82;100839.47;5060343;28;47351;-82
2021/06/29 01:39:36;;;;;;;;;2.50;2.50;;;;;19.71;56.67;100838.28;5069467;28;45533;-82
2021/06/29 01:42:02;;;;;;;;;1.25;1.25;;;;;19.68;57.36;100830.56;5065614;28;45431;-81
2021/06/29 01:44:34;;;;;;;;;3.00;2.25;;;;;19.61;57.37;100818.81;5071255;28;45297;-81
2021/06/29 01:47:00;;;;;;;;;1.75;1.50;;;;;19.59;56.73;100827.00;5061723;28;45428;-81
2021/06/29 01:49:27;;;;;;;;;1.50;1.50;;;;;19.57;57.10;100820.97;5061534;28;45379;-81
2021/06/29 01:51:54;;;;;;;;;2.25;1.75;;;;;19.55;57.25;100816.78;5081248;28;45532;-81
2021/06/29 01:54:21;;;;;;;;;1.50;1.50;;;;;19.55;57.14;100819.44;5085852;28;45206;-81
2021/06/29 01:56:48;;;;;;;;;1.50;1.50;;;;;19.56;57.13;100818.47;5078629;28;48366;-81
2021/06/29 01:59:17;;;;;;;;;2.25;2.25;;;;;19.59;56.79;100818.13;5085582;28;45401;-81
2021/06/29 02:01:43;;;;;;;;;3.25;2.25;;;;;19.61;56.98;100818.81;5074847;28;45459;-81
2021/06/29 02:04:09;;;;;;;;;2.75;1.75;;;;;19.64;57.16;100819.34;5061286;28;45303;-81
2021/06/29 02:06:34;;;;;;;;;2.25;2.25;;;;;19.66;56.95;100813.81;5068461;28;45538;-81
2021/06/29 02:09:00;;;;;;;;;1.50;1.50;;;;;19.65;57.53;100815.66;5081238;28;45364;-82
2021/06/29 02:11:25;;;;;;;;;1.25;1.25;;;;;19.64;57.47;100818.50;5077150;28;45245;-81
2021/06/29 02:13:50;;;;;;;;;2.00;2.00;;;;;19.60;57.17;100811.75;5068513;28;45596;-82
2021/06/29 02:16:16;;;;;;;;;1.50;1.50;;;;;19.57;57.15;100818.31;5064947;28;45310;-80
2021/06/29 02:18:41;;;;;;;;;2.00;2.00;;;;;19.57;56.98;100818.31;5061708;28;45345;-82
2021/06/29 02:21:07;;;;;;;;;1.75;1.75;;;;;19.53;57.54;100810.72;5073558;28;45406;-81
2021/06/29 02:23:33;;;;;;;;;4.50;3.00;;;;;19.56;58.09;100810.41;5060837;28;45240;-81
2021/06/29 02:25:59;;;;;;;;;3.50;2.50;;;;;19.53;57.27;100811.56;5060935;28;46166;-81
2021/06/29 02:28:25;;;;;;;;;3.25;2.50;;;;;19.53;57.88;100818.75;5061230;28;45477;-82
2021/06/29 02:30:50;;;;;;;;;2.25;2.25;;;;;19.52;57.56;100811.72;5062929;28;45452;-81
2021/06/29 02:33:16;;;;;;;;;4.25;3.00;;;;;19.56;58.06;100810.41;5063496;28;45422;-82
2021/06/29 02:35:41;;;;;;;;;4.00;3.00;;;;;19.57;57.68;100806.75;5064677;28;45422;-81
2021/06/29 02:38:07;;;;;;;;;3.75;3.00;;;;;19.58;57.88;100811.06;5080579;28;45311;-82
2021/06/29 02:40:33;;;;;;;;;4.50;2.00;;;;;19.59;57.81;100810.91;5085473;28;45271;-80
2021/06/29 02:42:59;;;;;;;;;2.25;2.25;;;;;19.60;57.38;100814.44;5082556;28;45793;-81
2021/06/29 02:45:25;;;;;;;;;4.00;2.50;;;;;19.58;57.72;100811.06;5060633;28;48190;-81
2021/06/29 02:47:52;;;;;;;;;4.00;2.75;;;;;19.46;58.46;100813.19;5059450;28;45320;-81
2021/06/29 02:50:18;;;;;;;;;4.25;2.00;;;;;19.44;57.88;100820.53;5060861;28;45296;-81
2021/06/29 02:52:44;;;;;;;;;5.50;3.00;;;;;19.38;58.35;100811.31;5059214;28;45394;-82
2021/06/29 02:55:11;;;;;;;;;2.75;1.50;;;;;19.35;58.25;100808.94;5061938;28;45327;-82
2021/06/29 02:57:37;;;;;;;;;5.00;3.00;;;;;19.31;58.22;100807.56;5071499;28;45541;-81
2021/06/29 03:00:08;;;;;;;;;2.50;2.50;;;;;19.28;58.14;100799.03;5060477;28;45298;-82
2021/06/29 03:02:33;;;;;;;;;3.50;3.50;;;;;19.20;59.11;100804.31;5059244;28;45351;-81
2021/06/29 03:04:59;;;;;;;;;3.25;1.75;;;;;19.13;58.74;100801.41;5059017;28;47457;-81
2021/06/29 03:07:24;;;;;;;;;3.00;3.00;;;;;19.09;58.69;100789.38;5060559;28;45365;-82
2021/06/29 03:09:50;;;;;;;;;3.25;3.25;;;;;19.05;59.75;100783.47;5058892;28;45298;-82
2021/06/29 03:12:15;;;;;;;;;2.25;2.00;;;;;19.02;59.37;100782.97;5072088;28;45269;-82
2021/06/29 03:14:41;;;;;;;;;2.00;2.00;;;;;18.96;59.98;100786.25;5081178;28;46482;-81
2021/06/29 03:17:07;;;;;;;;;3.00;3.00;;;;;18.91;59.10;100777.84;5082557;28;45540;-82
2021/06/29 03:19:33;;;;;;;;;4.00;3.00;;;;;18.90;59.71;100781.53;5081333;28;45445;-82
2021/06/29 03:21:59;;;;;;;;;5.00;3.00;;;;;18.90;59.54;100776.19;5079175;28;45844;-81
2021/06/29 03:24:26;;;;;;;;;2.50;2.50;;;;;18.89;59.23;100777.16;5078124;28;48111;-81
2021/06/29 03:26:52;;;;;;;;;2.00;2.00;;;;;18.92;59.20;100774.19;5078844;28;45694;-81
2021/06/29 03:29:17;;;;;;;;;2.25;1.75;;;;;18.96;59.50;100765.69;5062509;28;45248;-82
2021/06/29 03:31:43;;;;;;;;;4.75;3.00;;;;;19.03;58.85;100780.09;5063685;28;45372;-81
2021/06/29 03:34:08;;;;;;;;;2.25;2.00;;;;;19.03;58.74;100771.22;5070754;28;46989;-82
2021/06/29 03:36:34;;;;;;;;;2.25;2.25;;;;;19.03;58.79;100765.88;5084996;28;45495;-82
2021/06/29 03:38:59;;;;;;;;;2.00;2.00;;;;;19.01;58.06;100773.25;5067005;28;45549;-81
2021/06/29 03:41:25;;;;;;;;;3.75;2.00;;;;;18.97;58.32;100767.34;5062876;28;45676;-81
2021/06/29 03:43:50;;;;;;;;;4.00;2.00;;;;;18.98;58.74;100773.56;5063684;28;45953;-81
2021/06/29 03:46:15;;;;;;;;;2.00;2.00;;;;;19.00;58.48;100766.22;5063605;28;45323;-81
2021/06/29 03:48:41;;;;;;;;;2.00;2.00;;;;;19.03;58.16;100763.19;5062107;28;45395;-82
2021/06/29 03:51:06;;;;;;;;;5.00;2.25;;;;;19.03;58.36;100769.41;5062873;28;45793;-81
2021/06/29 03:53:32;;;;;;;;;3.00;3.00;;;;;19.05;57.96;100769.25;5063086;28;46147;-81
2021/06/29 03:55:57;;;;;;;;;2.50;2.00;;;;;19.06;57.89;100770.94;5075889;28;45367;-82
2021/06/29 03:58:23;;;;;;;;;2.50;2.50;;;;;19.10;58.11;100766.94;5067346;27;45438;-82
2021/06/29 04:00:48;;;;;;;;;3.00;2.00;;;;;19.13;57.75;100769.28;5066108;28;45429;-82
2021/06/29 04:03:13;;;;;;;;;3.25;3.25;;;;;19.16;57.94;100768.16;5064067;28;45962;-81
2021/06/29 04:05:39;;;;;;;;;4.25;4.25;;;;;19.15;58.09;100769.13;5061960;28;45234;-82
2021/06/29 04:08:05;;;;;;;;;4.75;4.00;;;;;19.21;57.40;100776.56;5063848;28;45302;-81
2021/06/29 04:10:31;;;;;;;;;2.00;2.00;;;;;19.22;57.46;100773.69;5063268;28;45578;-81
2021/06/29 04:12:57;;;;;;;;;1.75;1.75;;;;;19.26;57.84;100784.94;5081832;28;45349;-81
2021/06/29 04:15:23;;;;;;;;;2.50;2.50;;;;;19.29;57.31;100782.81;5082142;27;45535;-82
2021/06/29 04:17:48;;;;;;;;;1.25;1.25;;;;;19.31;57.64;100779.94;5071238;28;45235;-81
2021/06/29 04:20:14;;;;;;;;;3.00;3.00;;;;;19.33;57.57;100783.31;5082341;28;45658;-81
2021/06/29 04:22:39;;;;;;;;;4.50;3.50;;;;;19.35;57.12;100773.28;5061304;28;47124;-82
2021/06/29 04:25:07;;;;;;;;;2.00;2.00;;;;;19.38;57.24;100768.47;5061615;28;45771;-82
2021/06/29 04:27:32;;;;;;;;;5.50;2.50;;;;;19.38;57.45;100763.09;5061794;28;45541;-81
2021/06/29 04:29:58;;;;;;;;;2.00;2.00;;;;;19.37;56.92;100763.25;5070208;28;45355;-82
2021/06/29 04:32:23;;;;;;;;;4.00;2.00;;;;;19.36;57.21;100759.72;5070294;28;48117;-82
2021/06/29 04:34:49;;;;;;;;;3.25;2.75;;;;;19.41;57.15;100764.59;5074635;28;45398;-82
2021/06/29 04:37:14;;;;;;;;;3.50;3.25;;;;;19.43;56.77;100758.09;5078971;28;45363;-82
2021/06/29 04:39:41;;;;;;;;;5.75;4.25;;;;;19.46;56.91;100767.66;5068813;28;45171;-81
2021/06/29 04:42:07;;;;;;;;;3.00;3.00;;;;;19.44;57.21;100770.47;5082081;28;48079;-82
2021/06/29 04:44:35;;;;;;;;;3.00;2.50;;;;;19.46;57.04;100769.50;5063423;28;45575;-82
2021/06/29 04:47:01;;;;;;;;;4.00;3.50;;;;;19.50;57.50;100754.78;5063051;28;45460;-82
2021/06/29 04:49:28;;;;;;;;;2.75;2.75;;;;;19.54;56.92;100754.31;5062527;28;45362;-82
2021/06/29 04:51:54;;;;;;;;;2.50;2.50;;;;;19.56;56.87;100751.50;5065684;28;45262;-81
2021/06/29 04:54:19;;;;;;;;;3.25;3.25;;;;;19.64;56.55;100756.88;5072256;28;45235;-82
2021/06/29 04:56:44;;;;;;;;;4.75;2.75;;;;;19.67;56.96;100757.38;5064357;28;45343;-81
2021/06/29 04:59:10;;;;;;;;;2.25;2.25;;;;;19.74;56.66;100762.94;5068512;28;45299;-81
2021/06/29 05:01:35;;;;;;;;;3.50;2.25;;;;;19.80;56.48;100749.72;5075565;28;45571;-82
2021/06/29 05:04:00;;;;;;;;;3.50;2.50;;;;;19.86;56.63;100748.22;5077810;28;45906;-81
2021/06/29 05:06:26;;;;;;;;;1.75;1.75;;;;;19.90;56.06;100752.28;5074436;28;45421;-82
2021/06/29 05:08:51;;;;;;;;;2.75;2.75;;;;;19.93;56.18;100762.69;5078846;27;45262;-81
2021/06/29 05:11:17;;;;;;;;;3.50;2.50;;;;;19.97;55.79;100777.41;5072419;27;45930;-82
2021/06/29 05:13:42;;;;;;;;;3.25;2.25;;;;;19.99;56.46;100769.22;5071854;27;45389;-81
2021/06/29 05:16:08;;;;;;;;;2.50;2.50;;;;;20.02;55.98;100766.22;5068111;28;45493;-82
2021/06/29 05:18:34;;;;;;;;;5.25;2.00;;;;;20.01;55.54;100770.72;5074482;28;45603;-81
2021/06/29 05:20:59;;;;;;;;;3.25;3.25;;;;;20.02;55.48;100782.28;5078498;28;47513;-81
2021/06/29 05:23:25;;;;;;;;;4.00;3.75;;;;;20.02;56.05;100780.47;5075345;28;45259;-81
2021/06/29 05:25:50;;;;;;;;;6.50;3.50;;;;;20.05;55.87;100785.47;5069253;28;45477;-81
2021/06/29 05:28:20;;;;;;;;;3.00;3.00;;;;;20.10;55.92;100787.69;5067018;28;45380;-80
2021/06/29 05:30:48;;;;;;;;;3.50;3.50;;;;;20.17;55.74;100796.72;5068244;28;47111;-81
2021/06/29 05:33:14;;;;;;;;;5.00;3.00;;;;;20.26;55.22;100789.53;5076662;28;45395;-81
2021/06/29 05:35:40;;;;;;;;;6.00;2.75;;;;;20.33;55.07;100793.25;5078328;28;45615;-81
2021/06/29 05:38:07;;;;;;;;;4.50;3.25;;;;;20.37;55.29;100786.59;5076539;28;45333;-82
2021/06/29 05:40:32;;;;;;;;;4.75;3.75;;;;;20.44;54.77;100804.53;5063911;28;45344;-81
2021/06/29 05:42:58;;;;;;;;;4.75;2.75;;;;;20.44;55.08;100803.69;5064612;28;45247;-82
2021/06/29 05:45:23;;;;;;;;;5.25;4.50;;;;;20.46;54.91;100805.22;5061849;28;45272;-81
2021/06/29 05:47:49;;;;;;;;;4.00;3.50;;;;;20.50;55.08;100797.66;5060856;28;45155;-82
2021/06/29 05:50:14;;;;;;;;;4.50;3.00;;;;;20.58;55.01;100797.66;5060021;28;47162;-81
2021/06/29 05:52:40;;;;;;;;;4.75;3.00;;;;;20.64;54.34;100805.06;5060078;28;45309;-81
2021/06/29 05:55:07;;;;;;;;;5.25;3.00;;;;;20.67;54.64;100809.25;5061555;28;45317;-81
2021/06/29 05:57:33;;;;;;;;;4.50;3.00;;;;;20.61;54.45;100807.22;5079456;28;45517;-81
2021/06/29 05:59:59;;;;;;;;;7.00;4.00;;;;;20.56;54.07;100804.22;5082861;28;45465;-81
2021/06/29 06:02:24;;;;;;;;;4.00;4.00;;;;;20.58;54.43;100815.63;5074517;28;45320;-81
2021/06/29 06:04:50;;;;;;;;;5.25;3.75;;;;;20.54;54.16;100817.78;5077939;28;45278;-81
2021/06/29 06:07:15;;;;;;;;;4.00;4.00;;;;;20.50;54.20;100819.09;5061727;28;45702;-80
2021/06/29 06:09:41;;;;;;;;;7.00;4.00;;;;;20.50;54.34;100819.94;5060987;28;46335;-80
2021/06/29 06:12:06;;;;;;;;;7.00;4.75;;;;;20.47;54.54;100817.63;5061550;28;45378;-80
2021/06/29 06:14:32;;;;;;;;;3.25;3.25;;;;;20.48;55.09;100813.94;5062005;28;45433;-80
2021/06/29 06:16:57;;;;;;;;;3.25;3.25;;;;;20.53;54.81;100816.94;5061149;28;45429;-81
2021/06/29 06:19:23;;;;;;;;;4.50;4.50;;;;;20.56;54.45;100818.47;5059433;28;47463;-80
2021/06/29 06:21:49;;;;;;;;;5.50;3.50;;;;;20.60;54.55;100822.47;5059829;28;45280;-81
2021/06/29 06:24:14;;;;;;;;;5.50;4.75;;;;;20.59;55.03;100834.22;5061650;28;45532;-80
2021/06/29 06:26:40;;;;;;;;;5.75;3.00;;;;;20.61;55.24;100826.00;5062636;28;45783;-80
2021/06/29 06:29:05;;;;;;;;;5.00;3.00;;;;;20.62;55.07;100819.63;5060545;28;46091;-80
2021/06/29 06:31:31;;;;;;;;;2.75;2.75;;;;;20.61;54.92;100820.63;5060712;28;45224;-81
2021/06/29 06:33:56;;;;;;;;;4.00;3.00;;;;;20.58;54.75;100812.94;5060814;28;45276;-80
2021/06/29 06:36:40;;;;;;;;;4.50;4.00;;;;;20.62;55.33;100822.31;5059533;28;45272;-80
2021/06/29 06:39:06;;;;;;;;;4.25;4.00;;;;;20.64;56.00;100823.84;5077138;28;47159;-81
2021/06/29 06:41:32;;;;;;;;;3.00;2.50;;;;;20.73;56.07;100827.34;5081265;28;45170;-80
2021/06/29 06:43:57;;;;;;;;;5.50;3.00;;;;;20.75;55.35;100820.81;5085232;28;45184;-81
2021/06/29 06:46:22;;;;;;;;;6.75;3.25;;;;;20.81;55.33;100825.53;5082391;28;45845;-80
2021/06/29 06:48:48;;;;;;;;;4.50;3.50;;;;;20.86;54.73;100816.94;5081314;28;45208;-80
2021/06/29 06:51:14;;;;;;;;;4.50;4.50;;;;;20.92;55.48;100821.66;5079654;28;45472;-81
2021/06/29 06:53:39;;;;;;;;;4.00;3.50;;;;;20.97;55.17;100823.81;5079558;28;45347;-80
2021/06/29 06:56:05;;;;;;;;;6.50;4.50;;;;;21.02;55.31;100826.84;5079401;28;45753;-80
2021/06/29 06:58:30;;;;;;;;;4.00;4.00;;;;;21.03;55.16;100815.91;5062671;28;48212;-81
2021/06/29 07:00:55;;;;;;;;;5.25;4.00;;;;;21.09;55.12;100838.59;5060319;28;45448;-81
2021/06/29 07:03:21;;;;;;;;;6.00;5.00;;;;;21.03;54.80;100820.50;5059949;28;45406;-81
2021/06/29 07:05:47;;;;;;;;;5.50;5.50;;;;;21.02;55.22;100835.75;5063200;28;45430;-80
2021/06/29 07:08:13;;;;;;;;;6.00;5.25;;;;;20.98;54.65;100830.88;5060644;28;45440;-81
2021/06/29 07:10:38;;;;;;;;;5.00;5.00;;;;;20.85;54.77;100829.53;5059896;28;45297;-80
2021/06/29 07:13:06;;;;;;;;;7.00;5.00;;;;;20.78;55.49;100833.88;5060342;28;45149;-80
2021/06/29 07:15:33;;;;;;;;;8.50;5.25;;;;;20.73;55.50;100833.56;5060249;28;45181;-80
2021/06/29 07:18:01;;;;;;;;;7.25;4.25;;;;;20.71;56.02;100832.88;5060128;28;45987;-80
2021/06/29 07:20:26;;;;;;;;;4.50;4.00;;;;;20.74;55.32;100843.31;5060440;28;45324;-80
2021/06/29 07:22:53;;;;;;;;;6.00;3.75;;;;;20.73;56.47;100835.41;5062054;28;45282;-80
2021/06/29 07:25:20;;;;;;;;;5.50;5.50;;;;;20.77;55.54;100842.94;5066406;28;45362;-80
2021/06/29 07:27:45;;;;;;;;;5.50;5.50;;;;;20.80;56.22;100844.47;5062390;28;45467;-80
2021/06/29 07:30:11;;;;;;;;;7.00;6.00;;;;;20.84;55.98;100845.81;5060547;28;45242;-80
2021/06/29 07:32:41;;;;;;;;;4.00;4.00;;;;;20.84;56.18;100840.47;5060089;28;45166;-80
2021/06/29 07:35:07;;;;;;;;;8.50;5.00;;;;;20.85;56.33;100844.78;5042569;28;45370;-80
2021/06/29 07:37:32;;;;;;;;;6.50;5.50;;;;;20.84;56.29;100835.94;5063071;28;47521;-80
2021/06/29 07:39:58;;;;;;;;;5.00;5.00;;;;;20.90;56.33;100843.31;5080368;28;45436;-80
2021/06/29 07:42:23;;;;;;;;;4.00;4.00;;;;;20.96;55.58;100840.94;5079301;28;45231;-80
2021/06/29 07:44:49;;;;;;;;;5.50;4.75;;;;;21.04;55.89;100844.44;5081411;28;45346;-80
2021/06/29 07:47:14;;;;;;;;;5.25;3.25;;;;;21.20;55.07;100835.59;5081981;28;48187;-80
2021/06/29 07:49:39;;;;;;;;;4.25;4.25;;;;;21.46;55.57;100838.06;5079810;28;45272;-80
2021/06/29 07:52:05;;;;;;;;;5.50;5.50;;;;;21.71;55.25;100836.13;5061338;28;45252;-80
2021/06/29 07:54:30;;;;;;;;;5.75;5.75;;;;;21.89;54.99;100834.03;5070762;28;45351;-80
2021/06/29 07:56:56;;;;;;;;;5.50;5.00;;;;;22.11;54.81;100830.63;5071923;28;45391;-80
2021/06/29 07:59:21;;;;;;;;;7.00;6.00;;;;;22.32;52.99;100833.50;5058524;28;45308;-80
2021/06/29 08:01:46;;;;;;;;;6.25;5.00;;;;;22.45;51.69;100835.63;5059946;28;45212;-80
2021/06/29 08:04:12;;;;;;;;;6.00;4.00;;;;;22.56;50.96;100832.53;5060300;28;45867;-80
2021/06/29 08:06:38;;;;;;;;;5.00;4.50;;;;;22.61;51.12;100837.38;5062014;28;48609;-80
2021/06/29 08:09:04;;;;;;;;;7.00;5.50;;;;;22.70;51.25;100841.66;5061423;28;45510;-80
2021/06/29 08:11:29;;;;;;;;;6.25;4.25;;;;;22.81;51.83;100843.13;5060719;28;45485;-80
2021/06/29 08:13:54;;;;;;;;;3.50;3.00;;;;;22.89;50.37;100849.28;5063040;28;45251;-81
2021/06/29 08:16:20;;;;;;;;;3.00;3.00;;;;;22.86;48.98;100852.34;5064820;28;46034;-80
2021/06/29 08:18:46;;;;;;;;;3.00;3.00;;;;;22.65;48.58;100841.38;5071710;28;46011;-80
2021/06/29 08:21:11;;;;;;;;;5.00;3.25;;;;;22.57;50.50;100844.97;5062920;28;45291;-81
2021/06/29 08:23:37;;;;;;;;;4.50;4.00;;;;;22.57;50.51;100849.53;5061643;28;45512;-80
2021/06/29 08:26:04;;;;;;;;;3.00;3.00;;;;;;;;5063823;28;45456;-80
2021/06/29 08:28:33;;;;;;;;;6.25;3.75;;;;;22.56;50.15;100851.38;5065094;28;45991;-80
2021/06/29 08:31:00;;;;;;;;;3.25;2.75;;;;;22.56;49.99;100851.38;5064977;28;45389;-80
2021/06/29 08:33:25;;;;;;;;;2.75;1.25;;;;;22.63;49.84;100848.78;5061941;28;45486;-80
2021/06/29 08:35:51;;;;;;;;;2.00;2.00;;;;;22.77;49.57;100846.19;5061176;28;46007;-80
2021/06/29 08:38:19;;;;;;;;;2.00;1.75;;;;;22.94;48.38;100852.31;5073429;28;45314;-80
2021/06/29 08:40:46;;;;;;;;;3.00;1.75;;;;;23.07;47.16;100854.38;5082036;28;45285;-81
2021/06/29 08:43:12;;;;;;;;;1.00;1.00;;;;;23.15;47.09;100854.28;5082539;28;45432;-81
2021/06/29 08:45:38;;;;;;;;;2.75;1.75;;;;;23.28;47.69;100856.38;5085300;28;45171;-81
2021/06/29 08:48:04;;;;;;;;;2.75;1.00;;;;;23.36;45.86;100853.59;5085312;28;45453;-81
2021/06/29 08:50:31;;;;;;;;;2.00;2.00;;;;;23.39;45.71;100853.22;5084401;28;45421;-80
2021/06/29 08:53:08;;;;;;;;;2.50;2.50;;;;;23.40;46.42;100838.69;5081897;28;45506;-80
2021/06/29 08:55:42;;;;;;;;;3.00;2.50;;;;;23.43;45.43;100839.19;5082578;28;45389;-80
2021/06/29 08:58:08;;;;;;;;;2.50;1.75;;;;;23.54;46.35;100840.63;5068857;27;45465;-80
2021/06/29 09:00:33;;;;;;;;;1.00;1.00;;;;;23.64;46.01;100843.88;5075195;28;45553;-80
2021/06/29 09:02:58;;;;;;;;;2.00;2.00;;;;;23.73;45.62;100840.06;5061452;28;45537;-80
2021/06/29 09:05:29;;;;;;;;;2.00;2.00;;;;;23.76;45.95;100844.25;5076017;28;45189;-81
2021/06/29 09:08:04;;;;;;;;;2.00;2.00;;;;;23.80;45.54;100851.78;5062963;28;45441;-80
2021/06/29 09:10:29;;;;;;;;;4.00;2.00;;;;;23.83;44.38;100846.03;5063424;28;45431;-80
2021/06/29 09:12:55;;;;;;;;;3.75;1.75;;;;;23.93;45.38;100844.91;5062129;28;45370;-80
2021/06/29 09:15:27;;;;;;;;;2.25;2.25;;;;;24.11;44.85;100848.03;5062179;28;45459;-80
2021/06/29 09:17:55;;;;;;;;;1.00;1.00;;;;;24.13;44.11;100845.97;5061743;28;45457;-80
2021/06/29 09:20:29;;;;;;;;;3.00;3.00;;;;;24.22;45.21;100844.84;5061109;28;45478;-80
2021/06/29 09:23:10;;;;;;;;;3.00;2.00;;;;;24.35;44.94;100844.19;5059453;28;45468;-80
2021/06/29 09:25:36;;;;;;;;;3.50;3.00;;;;;24.44;44.47;100843.88;5063193;28;46020;-80
2021/06/29 09:28:02;;;;;;;;;3.00;2.00;;;;;24.40;44.42;100841.75;5074564;28;45789;-80
2021/06/29 09:30:39;;;;;;;;;4.25;2.00;;;;;24.32;43.21;100853.47;5085374;28;45413;-80
2021/06/29 09:33:14;;;;;;;;;3.00;2.00;;;;;24.19;43.76;100846.06;5073681;28;45397;-80
2021/06/29 09:35:43;;;;;;;;;3.50;2.75;;;;;24.14;43.99;100839.53;5063705;28;47336;-81
2021/06/29 09:38:10;;;;;;;;;3.00;3.00;;;;;24.06;43.51;100835.09;5071554;28;45393;-80
2021/06/29 09:40:36;;;;;;;;;3.00;3.00;;;;;24.09;44.29;100842.81;5082043;28;45235;-80
2021/06/29 09:43:14;;;;;;;;;2.00;2.00;;;;;24.31;43.83;100838.31;5082152;27;45539;-81
2021/06/29 09:45:41;;;;;;;;;3.25;3.25;;;;;24.61;42.35;100847.16;5082014;28;45878;-80
2021/06/29 09:48:10;;;;;;;;;2.00;2.00;;;;;24.98;43.22;100843.38;5081461;28;45438;-81
2021/06/29 09:50:49;;;;;;;;;2.00;2.00;;;;;25.56;41.81;100827.81;5085714;28;45320;-81
2021/06/29 09:53:20;;;;;;;;;2.00;2.00;;;;;26.15;40.23;100830.81;5081669;28;45444;-80
2021/06/29 09:55:48;;;;;;;;;1.50;1.50;;;;;26.58;39.53;100836.81;5081900;28;45386;-80
2021/06/29 09:58:15;;;;;;;;;5.25;2.00;;;;;26.95;37.58;100831.88;5066538;27;45424;-81
2021/06/29 10:00:43;;;;;;;;;4.00;4.00;;;;;27.16;37.30;100818.09;5061478;28;45468;-81
2021/06/29 10:03:21;;;;;;;;;2.25;2.25;;;;;27.40;35.66;100820.16;5060067;28;46104;-81
2021/06/29 10:05:47;;;;;;;;;3.50;3.50;;;;;27.63;34.11;100824.28;5063721;28;45249;-81
2021/06/29 10:08:35;;;;;;;;;9.75;3.00;;;;;28.04;35.84;100824.78;5063258;28;45234;-81
2021/06/29 10:11:06;;;;;;;;;2.00;2.00;;;;;28.43;34.67;100826.47;5064978;28;45536;-81
2021/06/29 10:13:36;;;;;;;;;1.00;1.00;;;;;28.59;34.55;100831.38;5060414;28;45507;-81
2021/06/29 10:16:06;;;;;;;;;4.50;1.75;;;;;28.77;29.59;100830.66;5061329;28;46377;-81
2021/06/29 10:18:36;;;;;;;;;1.00;1.00;;;;;29.02;32.45;100831.50;5059882;28;45315;-81
2021/06/29 10:21:14;;;;;;;;;0.00;0.00;;;;;29.25;30.69;100835.47;5059718;28;45434;-81
2021/06/29 10:23:41;;;;;;;;;1.00;1.00;;;;;29.48;32.65;100826.72;5059617;28;45339;-81
2021/06/29 10:26:08;;;;;;;;;2.00;1.00;;;;;30.00;30.74;100822.56;5060906;28;45267;-81
2021/06/29 10:28:34;;;;;;;;;3.00;2.00;;;;;31.27;27.75;100820.47;5062054;28;46073;-81
2021/06/29 10:31:01;;;;;;;;;2.50;2.50;;;;;32.33;27.27;100823.59;5061683;28;45350;-81
2021/06/29 10:33:27;;;;;;;;;2.50;2.00;;;;;32.70;28.00;100821.28;5061229;28;45523;-81
2021/06/29 10:35:54;;;;;;;;;1.00;1.00;;;;;33.10;27.15;100824.94;5060322;28;46782;-81
2021/06/29 10:38:20;;;;;;;;;2.25;2.25;;;;;33.10;26.07;100830.41;5072482;28;45248;-81
2021/06/29 10:40:50;;;;;;;;;1.00;1.00;;;;;32.67;24.88;100826.41;5081110;27;45180;-81
2021/06/29 10:43:16;;;;;;;;;1.25;1.25;;;;;32.00;27.21;100823.47;5081016;28;45491;-81
2021/06/29 10:45:42;;;;;;;;;1.00;1.00;;;;;31.53;26.15;100818.06;5079689;28;47499;-81
2021/06/29 10:48:17;;;;;;;;;3.75;2.00;;;;;30.93;26.87;100809.28;5081077;28;45310;-81
2021/06/29 10:50:43;;;;;;;;;2.00;1.00;;;;;30.30;28.31;100812.53;5082309;28;45353;-81
2021/06/29 10:53:35;;;;;;;;;2.50;2.50;;;;;29.79;29.35;100821.13;5082784;28;45280;-81
2021/06/29 10:56:03;;;;;;;;;4.00;2.00;;;;;29.39;29.06;100826.19;5079925;28;48003;-81
2021/06/29 10:58:50;;;;;;;;;3.75;2.00;;;;;29.03;29.26;100811.44;5064261;27;45441;-81
2021/06/29 11:01:32;;;;;;;;;1.00;1.00;;;;;28.77;30.26;100819.78;5060817;28;45371;-81
2021/06/29 11:04:00;;;;;;;;;2.75;2.00;;;;;28.38;30.51;100811.88;5069052;28;45465;-81
2021/06/29 11:06:46;;;;;;;;;1.75;1.75;;;;;28.18;31.31;100818.25;5080398;28;45235;-81
2021/06/29 11:09:14;;;;;;;;;4.50;2.25;;;;;27.91;31.84;100822.09;5079272;28;45410;-81
2021/06/29 11:11:40;;;;;;;;;3.50;1.00;;;;;27.63;31.89;100818.88;5069841;28;45689;-81
2021/06/29 11:14:29;;;;;;;;;2.00;2.00;;;;;27.23;32.73;100809.94;5063725;28;45399;-81
2021/06/29 11:17:03;;;;;;;;;2.25;2.25;;;;;27.09;33.16;100820.81;5067442;28;46459;-81
2021/06/29 11:19:58;;;;;;;;;1.00;1.00;;;;;27.09;32.72;100822.69;5079080;28;45265;-81
2021/06/29 11:22:48;;;;;;;;;0.75;0.75;;;;;27.13;32.97;100822.03;5080694;27;45501;-81
2021/06/29 11:25:15;;;;;;;;;1.00;1.00;;;;;27.25;32.71;100818.69;5080403;27;45564;-81
2021/06/29 11:28:01;;;;;;;;;3.75;1.00;;;;;27.13;32.41;100808.47;5080328;28;45361;-81
2021/06/29 11:30:51;;;;;;;;;3.00;2.00;;;;;27.06;32.62;100823.94;5080074;28;46102;-81